Canyon City, Oregon
Current Conditions -  °F | °C
As of 5:35 AM on Thursday 30 Oct 2014 (Local Time) from KGCD Reporting Station
Overcast Overcast  
Wind Chill: 53°   Ceiling: 11000
Heat Index: 53°   Visibility: 10mi
Dew Point: 40°   Wind: 3mph
Humidity: 60%   Direction: 90°E
Pressure: 30.08"   Gusts: NA
Location:  44.39°N, 118.95°W
Report Text: KGCD 301235Z AUTO 09003KT 10SM SCT080 OVC110 12/04 A3008 RMK AO2 T01170042
Loading
Personal Weather Stations






























Interactive Weather Map New forecast layout! Learn more

10-Day Weather Forecast

Advertisements
Track Severe Weather on mobile